Time;durP1;ratioP1;P1;durP2;ratioP2;P2;SDS_P1;SDS_P2;PMS_P1;PMS_P2;Temp;Humidity;BMP_temperature;BMP_pressure;BME280_temperature;BME280_humidity;BME280_pressure;Samples;Min_cycle;Max_cycle;Signal;HPM_P1;HPM_P2
2022/10/07 00:01:12;;;;;;;6.15;1.40;;;6.20;99.90;;;;;;4978465;28;20208;-68
2022/10/07 00:03:39;;;;;;;11.88;2.05;;;6.20;99.90;;;;;;4979325;28;20118;-67
2022/10/07 00:06:09;;;;;;;4.10;1.40;;;6.10;99.90;;;;;;4987272;28;20042;-67
2022/10/07 00:08:36;;;;;;;5.05;1.67;;;6.10;99.90;;;;;;5000070;28;20144;-68
2022/10/07 00:11:10;;;;;;;12.15;1.60;;;6.10;99.90;;;;;;4997019;28;20466;-68
2022/10/07 00:13:38;;;;;;;5.72;1.52;;;6.10;99.90;;;;;;4998901;28;20818;-68
2022/10/07 00:16:09;;;;;;;6.30;1.52;;;6.10;99.90;;;;;;4998775;28;20125;-68
2022/10/07 00:18:37;;;;;;;9.60;1.50;;;6.10;99.90;;;;;;4986989;28;20042;-69
2022/10/07 00:21:08;;;;;;;11.30;1.63;;;6.20;99.90;;;;;;4986056;28;20042;-68
2022/10/07 00:23:34;;;;;;;5.00;1.60;;;6.10;99.90;;;;;;4985978;28;20456;-67
2022/10/07 00:26:07;;;;;;;9.93;1.50;;;6.10;99.90;;;;;;4987205;28;20035;-67
2022/10/07 00:28:34;;;;;;;9.20;1.85;;;6.00;99.90;;;;;;4985985;28;20042;-67
2022/10/07 00:31:02;;;;;;;7.05;1.25;;;6.00;99.90;;;;;;4997172;28;20037;-67
2022/10/07 00:33:34;;;;;;;5.60;1.55;;;6.10;99.90;;;;;;5023651;28;20192;-68
2022/10/07 00:35:59;;;;;;;6.45;1.27;;;6.00;99.90;;;;;;5024734;28;20049;-68
2022/10/07 00:38:25;;;;;;;;;;;6.00;99.90;;;;;;5024115;28;20044;-68
2022/10/07 00:40:51;;;;;;;7.72;1.33;;;6.00;99.90;;;;;;5023707;28;19916;-67
2022/10/07 00:43:25;;;;;;;4.38;1.63;;;6.00;99.90;;;;;;5024295;28;20041;-67
2022/10/07 00:45:54;;;;;;;6.78;1.58;;;6.00;99.90;;;;;;5024379;28;20364;-68
2022/10/07 00:48:25;;;;;;;5.90;1.52;;;6.00;99.90;;;;;;5020804;28;20072;-69
2022/10/07 00:50:52;;;;;;;11.13;1.55;;;6.00;99.90;;;;;;5025379;28;20461;-67
2022/10/07 00:53:20;;;;;;;5.68;1.60;;;6.00;99.90;;;;;;5025081;28;20863;-68
2022/10/07 00:55:45;;;;;;;5.80;1.40;;;5.90;99.90;;;;;;5025314;28;20049;-67
2022/10/07 00:58:11;;;;;;;;;;;5.90;99.90;;;;;;5023424;28;20085;-69
2022/10/07 01:00:38;;;;;;;4.47;1.35;;;5.90;99.90;;;;;;5039641;28;19947;-67
2022/10/07 01:03:04;;;;;;;8.27;2.00;;;5.90;99.90;;;;;;5021920;28;20100;-68
2022/10/07 01:05:30;;;;;;;;;;;5.90;99.90;;;;;;5023510;28;20507;-67
2022/10/07 01:07:56;;;;;;;6.35;1.42;;;5.90;99.90;;;;;;5025052;28;19928;-67
2022/10/07 01:10:27;;;;;;;10.15;1.63;;;5.90;99.90;;;;;;5023877;28;20034;-68
2022/10/07 01:13:14;;;;;;;6.05;1.48;;;6.00;99.90;;;;;;5024346;28;20044;-68
2022/10/07 01:15:55;;;;;;;8.20;1.60;;;5.90;99.90;;;;;;5025236;28;20124;-67
2022/10/07 01:18:28;;;;;;;7.15;1.58;;;5.90;99.90;;;;;;5021012;28;20093;-68
2022/10/07 01:21:23;;;;;;;6.05;1.50;;;5.90;99.90;;;;;;5023515;28;20041;-67
2022/10/07 01:24:07;;;;;;;8.73;1.42;;;5.90;99.90;;;;;;5024295;28;20049;-67
2022/10/07 01:26:53;;;;;;;7.13;1.60;;;5.80;99.90;;;;;;5023510;28;20068;-68
2022/10/07 01:29:21;;;;;;;9.93;1.70;;;5.80;99.90;;;;;;5023908;28;20393;-68
2022/10/07 01:31:55;;;;;;;6.70;1.67;;;5.80;99.90;;;;;;5022624;28;20069;-67
2022/10/07 01:34:23;;;;;;;10.77;1.80;;;5.80;99.90;;;;;;5024223;28;20541;-68
2022/10/07 01:36:51;;;;;;;6.35;1.52;;;5.80;99.90;;;;;;5022525;28;20136;-68
2022/10/07 01:39:23;;;;;;;6.28;1.98;;;5.80;99.90;;;;;;5019591;28;20401;-68
2022/10/07 01:41:49;;;;;;;14.82;1.65;;;5.80;99.90;;;;;;5023476;28;20068;-68
2022/10/07 01:44:15;;;;;;;14.82;4.53;;;5.80;99.90;;;;;;5023006;28;20068;-68
2022/10/07 01:46:42;;;;;;;;;;;5.80;99.90;;;;;;5022987;28;20128;-68
2022/10/07 01:49:08;;;;;;;7.00;1.92;;;5.80;99.90;;;;;;5023639;28;19921;-68
2022/10/07 01:51:37;;;;;;;5.75;1.63;;;5.80;99.90;;;;;;5021325;28;20143;-67
2022/10/07 01:54:06;;;;;;;4.63;1.52;;;5.80;99.90;;;;;;5023195;28;20069;-68
2022/10/07 01:56:31;;;;;;;7.13;1.40;;;5.80;99.90;;;;;;5022640;28;20045;-68
2022/10/07 01:59:06;;;;;;;;;;;5.70;99.90;;;;;;5024481;28;20041;-69
2022/10/07 02:02:01;;;;;;;8.98;1.80;;;5.70;99.90;;;;;;5022693;28;19925;-67
2022/10/07 02:04:35;;;;;;;10.45;1.83;;;5.70;99.90;;;;;;5023112;28;20108;-68
2022/10/07 02:07:12;;;;;;;9.18;1.45;;;5.70;99.90;;;;;;5017310;28;20091;-67
2022/10/07 02:09:45;;;;;;;;;;;5.60;99.90;;;;;;5023890;28;20056;-69
2022/10/07 02:12:22;;;;;;;6.32;1.17;;;5.60;99.90;;;;;;5018436;28;19916;-67
2022/10/07 02:15:22;;;;;;;6.95;1.48;;;5.60;99.90;;;;;;5022654;28;20038;-67
2022/10/07 02:17:55;;;;;;;13.10;1.52;;;5.60;99.90;;;;;;5000680;28;20054;-68
2022/10/07 02:20:25;;;;;;;14.52;1.98;;;5.60;99.90;;;;;;5024006;28;20042;-69
2022/10/07 02:22:52;;;;;;;9.60;1.85;;;5.60;99.90;;;;;;5022642;28;20119;-68
2022/10/07 02:25:19;;;;;;;8.55;1.40;;;5.60;99.90;;;;;;5022629;28;20037;-68
2022/10/07 02:27:48;;;;;;;9.57;1.65;;;5.60;99.90;;;;;;5023435;28;20636;-67
2022/10/07 02:30:17;;;;;;;5.18;1.33;;;5.60;99.90;;;;;;5023276;28;20040;-67
2022/10/07 02:32:50;;;;;;;12.75;3.67;;;5.60;99.90;;;;;;5023165;28;20123;-68
2022/10/07 02:35:42;;;;;;;8.82;1.52;;;5.60;99.90;;;;;;5022680;28;20077;-68
2022/10/07 02:38:11;;;;;;;8.73;1.52;;;5.60;99.90;;;;;;5020396;28;20048;-70
2022/10/07 02:40:50;;;;;;;8.68;1.60;;;5.60;99.90;;;;;;5023545;28;20049;-68
2022/10/07 02:43:27;;;;;;;6.03;1.30;;;5.60;99.90;;;;;;5033989;28;20037;-70
2022/10/07 02:46:00;;;;;;;7.72;1.40;;;5.60;99.90;;;;;;5020735;28;20083;-70
2022/10/07 02:48:51;;;;;;;13.48;1.35;;;5.60;99.90;;;;;;5020023;28;20037;-67
2022/10/07 02:51:21;;;;;;;6.65;1.13;;;5.50;99.90;;;;;;5018860;28;20022;-67
2022/10/07 02:53:49;;;;;;;8.63;1.70;;;5.50;99.90;;;;;;5023296;28;20041;-67
2022/10/07 02:56:19;;;;;;;7.50;1.27;;;5.50;99.90;;;;;;5023430;28;20358;-68
2022/10/07 02:58:45;;;;;;;7.55;1.70;;;5.50;99.90;;;;;;5021384;28;20103;-68
2022/10/07 03:01:16;;;;;;;10.07;1.85;;;5.50;99.90;;;;;;5022300;28;20049;-68
2022/10/07 03:03:45;;;;;;;5.20;1.50;;;5.40;99.90;;;;;;5022484;28;20045;-67
2022/10/07 03:06:12;;;;;;;9.13;1.40;;;5.40;99.90;;;;;;5021773;28;20041;-67
2022/10/07 03:08:39;;;;;;;7.53;1.40;;;5.40;99.90;;;;;;5023219;28;20060;-67
2022/10/07 03:11:04;;;;;;;7.95;1.48;;;5.40;99.90;;;;;;5023080;28;20033;-67
2022/10/07 03:13:30;;;;;;;6.40;1.60;;;5.40;99.90;;;;;;5022723;28;20037;-67
2022/10/07 03:15:56;;;;;;;;;;;5.50;99.90;;;;;;5023843;28;20060;-67
2022/10/07 03:18:28;;;;;;;4.88;1.00;;;5.40;99.90;;;;;;5023167;28;19963;-67
2022/10/07 03:20:55;;;;;;;8.38;1.63;;;5.40;99.90;;;;;;5021967;28;20044;-67
2022/10/07 03:23:25;;;;;;;10.38;1.10;;;5.40;99.90;;;;;;5018046;28;20042;-67
2022/10/07 03:25:52;;;;;;;10.25;1.88;;;5.40;99.90;;;;;;5022997;28;20045;-69
2022/10/07 03:28:23;;;;;;;7.18;1.73;;;5.40;99.90;;;;;;5022434;28;20541;-70
2022/10/07 03:30:50;;;;;;;6.07;1.80;;;5.30;99.90;;;;;;5022247;28;20045;-67
2022/10/07 03:33:17;;;;;;;5.13;1.60;;;5.30;99.90;;;;;;5018093;28;20037;-68
2022/10/07 03:35:44;;;;;;;7.13;1.60;;;5.30;99.90;;;;;;5022665;28;20080;-67
2022/10/07 03:38:10;;;;;;;8.02;1.67;;;5.30;99.90;;;;;;5021528;28;20068;-68
2022/10/07 03:40:39;;;;;;;7.65;2.25;;;5.30;99.90;;;;;;5022056;28;20045;-67
2022/10/07 03:43:06;;;;;;;12.90;1.77;;;5.30;99.90;;;;;;5020980;28;20033;-67
2022/10/07 03:45:32;;;;;;;6.15;1.13;;;5.30;99.90;;;;;;5023132;28;20049;-68
2022/10/07 03:47:58;;;;;;;6.13;1.45;;;5.30;99.90;;;;;;5022320;28;20065;-69
2022/10/07 03:50:25;;;;;;;7.90;1.70;;;5.40;99.90;;;;;;5023370;28;20111;-67
2022/10/07 03:52:50;;;;;;;3.55;1.17;;;5.40;99.90;;;;;;5023907;28;20037;-68
2022/10/07 03:55:16;;;;;;;4.95;1.27;;;5.40;99.90;;;;;;5027014;28;20072;-67
2022/10/07 03:57:52;;;;;;;14.23;1.50;;;5.40;99.90;;;;;;5025034;28;20048;-67
2022/10/07 04:00:21;;;;;;;8.87;1.20;;;5.40;99.90;;;;;;5020440;28;20057;-67
2022/10/07 04:02:47;;;;;;;6.57;1.38;;;5.30;99.90;;;;;;5026190;28;20287;-67
2022/10/07 04:05:17;;;;;;;4.75;1.00;;;5.30;99.90;;;;;;5026796;28;20037;-67
2022/10/07 04:07:44;;;;;;;4.78;1.10;;;5.30;99.90;;;;;;5026454;28;20738;-68
2022/10/07 04:10:10;;;;;;;8.95;1.20;;;5.30;99.90;;;;;;5026956;28;20468;-67
2022/10/07 04:12:36;;;;;;;15.20;1.33;;;5.30;99.90;;;;;;5024891;28;20041;-68
2022/10/07 04:15:03;;;;;;;6.38;1.10;;;5.30;99.90;;;;;;5026724;28;20082;-67
2022/10/07 04:17:28;;;;;;;3.90;1.05;;;5.30;99.90;;;;;;5025856;28;20049;-67
2022/10/07 04:19:54;;;;;;;4.93;1.80;;;5.30;99.90;;;;;;5026910;28;20140;-67
2022/10/07 04:22:20;;;;;;;4.88;0.90;;;5.30;99.90;;;;;;5026850;28;20414;-67
2022/10/07 04:25:32;;;;;;;7.10;1.20;;;5.30;99.90;;;;;;5027304;28;20445;-67
2022/10/07 04:27:32;;;;;;;7.72;1.40;;;5.30;99.90;;;;;;5025898;28;20140;-67
2022/10/07 04:29:57;;;;;;;7.00;1.35;;;5.30;99.90;;;;;;5026232;28;20140;-68
2022/10/07 04:32:23;;;;;;;7.68;1.50;;;5.20;99.90;;;;;;5025517;28;20048;-67
2022/10/07 04:34:50;;;;;;;;;;;5.30;99.90;;;;;;5026510;28;20033;-68
2022/10/07 04:37:16;;;;;;;8.90;1.63;;;5.20;99.90;;;;;;5025962;28;19964;-67
2022/10/07 04:39:41;;;;;;;4.68;0.98;;;5.20;99.90;;;;;;5026250;28;20076;-68
2022/10/07 04:42:07;;;;;;;6.40;0.90;;;5.10;99.90;;;;;;5026524;28;20040;-67
2022/10/07 04:44:33;;;;;;;7.10;1.27;;;5.10;99.90;;;;;;5025987;28;20045;-67
2022/10/07 04:46:59;;;;;;;;;;;5.10;99.90;;;;;;5026154;28;20036;-67
2022/10/07 04:49:25;;;;;;;7.95;1.15;;;5.10;99.90;;;;;;5018815;28;19917;-68
2022/10/07 04:51:53;;;;;;;4.50;1.40;;;5.10;99.90;;;;;;5025347;28;20033;-69
2022/10/07 04:54:20;;;;;;;7.60;1.42;;;5.10;99.90;;;;;;5025274;28;20053;-67
2022/10/07 04:56:48;;;;;;;6.47;1.73;;;5.00;99.90;;;;;;5025421;28;20056;-65
2022/10/07 04:59:14;;;;;;;4.88;1.42;;;5.00;99.90;;;;;;5025155;28;20045;-64
2022/10/07 05:01:39;;;;;;;3.70;0.95;;;5.00;99.90;;;;;;5024800;28;20040;-67
2022/10/07 05:04:05;;;;;;;8.00;1.80;;;5.00;99.90;;;;;;5024098;28;20073;-66
2022/10/07 05:06:32;;;;;;;;;;;5.00;99.90;;;;;;5025055;28;20045;-66
2022/10/07 05:08:57;;;;;;;9.35;1.60;;;4.90;99.90;;;;;;5025072;28;19947;-66
2022/10/07 05:11:24;;;;;;;;;;;4.90;99.90;;;;;;5026191;28;20037;-65
2022/10/07 05:13:51;;;;;;;8.75;1.67;;;4.90;99.90;;;;;;5023993;28;19921;-65
2022/10/07 05:16:16;;;;;;;8.75;1.00;;;4.90;99.90;;;;;;5020614;28;20046;-64
2022/10/07 05:18:42;;;;;;;4.88;1.40;;;5.00;99.90;;;;;;5025260;28;20064;-65
2022/10/07 05:21:08;;;;;;;;;;;5.00;99.90;;;;;;5026273;28;20057;-66
2022/10/07 05:23:37;;;;;;;7.00;1.30;;;4.90;99.90;;;;;;5025239;28;19952;-65
2022/10/07 05:26:06;;;;;;;9.25;1.52;;;4.90;99.90;;;;;;5025696;28;20713;-67
2022/10/07 05:28:33;;;;;;;5.78;1.35;;;4.90;99.90;;;;;;5024916;28;20048;-66
2022/10/07 05:31:12;;;;;;;8.50;1.63;;;4.90;99.90;;;;;;5024656;28;20037;-65
2022/10/07 05:33:39;;;;;;;6.65;1.98;;;4.90;99.90;;;;;;5023747;28;20041;-68
2022/10/07 05:36:06;;;;;;;13.73;1.40;;;4.90;99.90;;;;;;5025663;28;20113;-65
2022/10/07 05:38:32;;;;;;;9.80;1.40;;;4.90;99.90;;;;;;5025916;28;20048;-66
2022/10/07 05:41:01;;;;;;;11.25;1.75;;;5.00;99.90;;;;;;5026895;28;20656;-66
2022/10/07 05:43:29;;;;;;;7.43;1.48;;;5.00;99.90;;;;;;5025855;28;20136;-67
2022/10/07 05:46:02;;;;;;;5.95;1.48;;;5.00;99.90;;;;;;5017228;28;20498;-67
2022/10/07 05:48:29;;;;;;;5.65;1.48;;;5.00;99.90;;;;;;5025005;28;20049;-67
2022/10/07 05:50:56;;;;;;;8.10;1.50;;;5.00;99.90;;;;;;5025298;28;20053;-67
2022/10/07 05:53:23;;;;;;;5.50;1.55;;;5.00;99.90;;;;;;5025282;28;20449;-68
2022/10/07 05:55:50;;;;;;;9.85;1.50;;;5.00;99.90;;;;;;5025160;28;20083;-68
2022/10/07 05:58:17;;;;;;;15.85;1.63;;;4.90;99.90;;;;;;5024898;28;20410;-67
2022/10/07 06:01:05;;;;;;;8.23;1.70;;;4.90;99.90;;;;;;5022053;28;20042;-68
2022/10/07 06:03:31;;;;;;;8.52;1.05;;;4.90;99.90;;;;;;5022352;28;20045;-67
2022/10/07 06:05:58;;;;;;;7.00;1.55;;;5.00;99.90;;;;;;5023198;28;20045;-67
2022/10/07 06:08:24;;;;;;;9.50;1.70;;;5.00;99.90;;;;;;5025264;28;20049;-68
2022/10/07 06:13:34;;;;;;;8.45;2.10;;;5.00;99.90;;;;;;5019136;28;20044;-68
2022/10/07 06:16:06;;;;;;;9.82;1.60;;;5.10;99.90;;;;;;5024093;28;20037;-68
2022/10/07 06:18:31;;;;;;;12.68;1.75;;;5.10;99.90;;;;;;5024730;28;20041;-67
2022/10/07 06:20:59;;;;;;;8.77;1.70;;;5.10;99.90;;;;;;5026211;28;20504;-68
2022/10/07 06:23:26;;;;;;;9.93;2.20;;;5.10;99.90;;;;;;5024824;28;20037;-67
2022/10/07 06:25:56;;;;;;;5.80;1.40;;;5.20;99.90;;;;;;5024387;28;20541;-67
2022/10/07 06:28:22;;;;;;;4.55;1.42;;;5.20;99.90;;;;;;5020626;28;20452;-68
2022/10/07 06:30:48;;;;;;;7.10;1.60;;;5.30;99.90;;;;;;5024093;28;20071;-68
2022/10/07 06:33:16;;;;;;;6.55;1.45;;;5.40;99.90;;;;;;5026057;28;20044;-68
2022/10/07 06:35:43;;;;;;;7.63;2.03;;;5.50;99.90;;;;;;5024645;28;20111;-68
2022/10/07 06:38:09;;;;;;;9.48;1.55;;;5.60;99.90;;;;;;5024600;28;20543;-68
2022/10/07 06:40:34;;;;;;;;;;;5.60;99.90;;;;;;5024669;28;20041;-68
2022/10/07 06:43:00;;;;;;;7.88;1.75;;;5.80;99.90;;;;;;5024237;28;19917;-68
2022/10/07 06:45:30;;;;;;;11.90;1.55;;;6.10;99.90;;;;;;5026049;28;20051;-67
2022/10/07 06:47:55;;;;;;;5.75;1.23;;;6.20;99.90;;;;;;5024049;28;20041;-67
2022/10/07 06:50:21;;;;;;;;;;;6.20;99.90;;;;;;5025338;28;20042;-68
2022/10/07 06:52:47;;;;;;;8.90;1.40;;;6.30;99.90;;;;;;5023932;28;19923;-68
2022/10/07 06:55:13;;;;;;;5.38;1.40;;;6.40;99.90;;;;;;5024281;28;20044;-67
2022/10/07 06:57:40;;;;;;;8.50;1.88;;;6.40;99.90;;;;;;5023705;28;20099;-67
2022/10/07 07:00:06;;;;;;;10.50;2.35;;;6.30;99.90;;;;;;5024325;28;20049;-67
2022/10/07 07:02:32;;;;;;;13.35;1.83;;;6.30;99.90;;;;;;5023061;28;20141;-67
2022/10/07 07:04:58;;;;;;;9.60;2.10;;;6.30;99.90;;;;;;5022911;28;20580;-66
2022/10/07 07:07:23;;;;;;;;;;;6.60;99.90;;;;;;5024033;28;20045;-67
2022/10/07 07:09:50;;;;;;;5.22;1.50;;;6.70;99.90;;;;;;5022934;28;19956;-65
2022/10/07 07:12:15;;;;;;;6.70;2.22;;;6.80;99.90;;;;;;5025739;28;20038;-67
2022/10/07 07:14:43;;;;;;;;;;;6.90;99.90;;;;;;5023822;28;20088;-67
2022/10/07 07:17:10;;;;;;;6.18;1.52;;;6.90;99.90;;;;;;5023519;28;19924;-67
2022/10/07 07:19:36;;;;;;;5.20;1.50;;;6.90;99.90;;;;;;5023886;28;20037;-67
2022/10/07 07:22:02;;;;;;;;;;;6.90;99.90;;;;;;5016877;28;20037;-62
2022/10/07 07:24:28;;;;;;;9.00;2.00;;;7.00;99.90;;;;;;5022373;28;19924;-66
2022/10/07 07:26:54;;;;;;;;;;;7.00;99.90;;;;;;5017670;28;20296;-68
2022/10/07 07:29:20;;;;;;;9.73;1.83;;;7.10;99.90;;;;;;5020600;28;19921;-67
2022/10/07 07:31:46;;;;;;;;;;;7.10;99.90;;;;;;5027612;28;20045;-66
2022/10/07 07:34:12;;;;;;;8.80;1.33;;;7.10;99.90;;;;;;5025907;28;19928;-67
2022/10/07 07:36:43;;;;;;;9.10;2.50;;;7.20;99.90;;;;;;5025101;28;20084;-68
2022/10/07 07:39:12;;;;;;;8.90;1.38;;;7.20;99.90;;;;;;5026414;28;20041;-66
2022/10/07 07:41:45;;;;;;;9.20;1.85;;;7.30;99.90;;;;;;5024591;28;20040;-68
2022/10/07 07:44:13;;;;;;;6.63;1.77;;;7.40;99.90;;;;;;5023509;28;20037;-68
2022/10/07 07:46:42;;;;;;;7.47;2.05;;;7.50;99.90;;;;;;5023629;28;20075;-67
2022/10/07 07:49:09;;;;;;;6.70;1.30;;;7.60;99.90;;;;;;5024069;28;20047;-67
2022/10/07 07:51:36;;;;;;;9.30;2.00;;;7.70;99.90;;;;;;5023801;28;20277;-66
2022/10/07 07:54:02;;;;;;;12.60;2.63;;;7.80;99.90;;;;;;5024580;28;20083;-66
2022/10/07 07:56:30;;;;;;;9.88;2.30;;;8.00;99.90;;;;;;5006343;28;20528;-65
2022/10/07 07:58:56;;;;;;;13.55;2.65;;;8.40;99.90;;;;;;5019836;28;20045;-65
2022/10/07 08:01:22;;;;;;;;;;;8.90;99.90;;;;;;5026521;28;20056;-66
2022/10/07 08:03:48;;;;;;;14.85;2.97;;;9.30;99.90;;;;;;5025508;28;19921;-65
2022/10/07 08:06:16;;;;;;;12.35;2.42;;;9.50;99.90;;;;;;5020638;28;20049;-64
2022/10/07 08:08:42;;;;;;;12.95;2.88;;;9.80;99.90;;;;;;5022301;28;20064;-65
2022/10/07 08:11:08;;;;;;;;;;;10.10;99.90;;;;;;5027578;28;20234;-65
2022/10/07 08:13:35;;;;;;;10.60;2.47;;;10.30;99.90;;;;;;5027794;28;20007;-66
2022/10/07 08:16:03;;;;;;;10.63;2.10;;;10.50;99.90;;;;;;5028479;28;20104;-66
2022/10/07 08:18:30;;;;;;;14.48;2.53;;;10.60;99.90;;;;;;5026312;28;20128;-66
2022/10/07 08:20:58;;;;;;;10.95;2.92;;;10.70;99.90;;;;;;5025841;28;20068;-67
2022/10/07 08:23:25;;;;;;;10.88;1.92;;;10.80;99.90;;;;;;5018596;28;20046;-62
2022/10/07 08:25:58;;;;;;;14.02;2.63;;;11.00;99.90;;;;;;5025684;28;20046;-65
2022/10/07 08:28:25;;;;;;;16.80;2.17;;;11.00;99.90;;;;;;5020721;28;20045;-66
2022/10/07 08:30:51;;;;;;;15.38;3.35;;;11.10;99.90;;;;;;5019781;28;20112;-65
2022/10/07 08:33:18;;;;;;;14.35;2.90;;;11.30;99.90;;;;;;5024895;28;20049;-64
2022/10/07 08:35:56;;;;;;;11.30;2.05;;;11.40;99.90;;;;;;5025579;28;20048;-64
2022/10/07 08:38:22;;;;;;;7.90;1.48;;;11.60;99.90;;;;;;5026837;28;20049;-64
2022/10/07 08:40:49;;;;;;;;;;;11.70;99.90;;;;;;5025206;28;20389;-65
2022/10/07 08:43:17;;;;;;;11.68;1.48;;;11.90;99.90;;;;;;5041379;28;19921;-64
2022/10/07 08:45:44;;;;;;;15.57;2.15;;;12.00;99.90;;;;;;5025669;28;20081;-65
2022/10/07 08:48:18;;;;;;;8.55;1.60;;;12.10;99.90;;;;;;5025839;28;20048;-66
2022/10/07 08:51:18;;;;;;;12.07;2.17;;;12.20;99.90;;;;;;5025765;28;20041;-64
2022/10/07 08:53:48;;;;;;;12.15;1.77;;;12.30;99.90;;;;;;5022718;28;20128;-65
2022/10/07 08:56:17;;;;;;;15.60;1.92;;;12.40;99.90;;;;;;5025490;28;20050;-65
2022/10/07 08:59:08;;;;;;;12.77;2.00;;;12.50;99.90;;;;;;5024849;28;20037;-65
2022/10/07 09:01:51;;;;;;;11.15;1.58;;;12.60;99.90;;;;;;5021852;28;20113;-65
2022/10/07 09:04:35;;;;;;;11.10;1.95;;;12.80;99.90;;;;;;5023292;28;20037;-63
2022/10/07 09:07:08;;;;;;;11.23;1.58;;;12.90;99.90;;;;;;5024769;28;20037;-62
2022/10/07 09:09:39;;;;;;;9.75;1.42;;;12.90;99.90;;;;;;5016593;28;20052;-62
2022/10/07 09:12:11;;;;;;;14.82;2.10;;;13.10;99.90;;;;;;5021948;28;20146;-62
2022/10/07 09:14:40;;;;;;;9.50;1.80;;;13.10;99.30;;;;;;5014894;28;20049;-63
2022/10/07 09:17:14;;;;;;;15.00;2.30;;;13.10;99.30;;;;;;5017370;28;20054;-63
2022/10/07 09:20:05;;;;;;;13.40;2.55;;;13.20;99.10;;;;;;5029729;28;20046;-63
2022/10/07 09:22:37;;;;;;;7.40;1.35;;;13.30;97.80;;;;;;5031012;28;20103;-63
2022/10/07 09:25:19;;;;;;;7.90;2.08;;;13.20;97.60;;;;;;5014735;28;20046;-63
2022/10/07 09:27:45;;;;;;;7.43;1.17;;;13.30;98.10;;;;;;5017800;28;20046;-64
2022/10/07 09:30:13;;;;;;;;;;;13.30;97.40;;;;;;5015974;28;20395;-63
2022/10/07 09:32:42;;;;;;;9.05;1.50;;;13.40;97.50;;;;;;5016827;28;19924;-64
2022/10/07 09:35:23;;;;;;;6.85;1.67;;;13.50;97.30;;;;;;5023727;28;20057;-65
2022/10/07 09:37:59;;;;;;;19.73;2.13;;;13.60;97.10;;;;;;5024381;28;20049;-63
2022/10/07 09:41:13;;;;;;;5.82;1.25;;;13.60;97.10;;;;;;5021128;28;20045;-68
2022/10/07 09:43:26;;;;;;;6.50;1.38;;;13.80;97.10;;;;;;5019236;28;20855;-68
2022/10/07 09:45:52;;;;;;;13.57;2.13;;;13.90;97.00;;;;;;5022341;28;20059;-65
2022/10/07 09:48:20;;;;;;;;;;;14.00;96.10;;;;;;5018105;28;20311;-65
2022/10/07 09:50:46;;;;;;;14.32;1.83;;;13.90;95.90;;;;;;5022215;28;19962;-65
2022/10/07 09:53:25;;;;;;;8.38;1.13;;;14.00;95.80;;;;;;5023743;28;20045;-64
2022/10/07 09:55:53;;;;;;;10.85;1.70;;;14.20;95.70;;;;;;5022417;28;20049;-64
2022/10/07 09:58:30;;;;;;;7.65;1.48;;;14.20;95.50;;;;;;5020507;28;20045;-67
2022/10/07 10:00:58;;;;;;;10.32;1.73;;;14.30;96.00;;;;;;5017585;28;20442;-66
2022/10/07 10:03:32;;;;;;;5.88;1.55;;;14.40;94.70;;;;;;5020904;28;20042;-65
2022/10/07 10:06:07;;;;;;;10.55;2.25;;;14.40;94.50;;;;;;5023744;28;20049;-63
2022/10/07 10:08:38;;;;;;;11.65;1.80;;;14.40;94.80;;;;;;5023612;28;20072;-65
2022/10/07 10:11:20;;;;;;;6.38;1.52;;;14.50;94.70;;;;;;5021580;28;20072;-65
2022/10/07 10:13:48;;;;;;;8.80;1.33;;;14.50;94.40;;;;;;5021894;28;20039;-65
2022/10/07 10:16:23;;;;;;;5.97;1.33;;;14.60;95.20;;;;;;5022841;28;20508;-64
2022/10/07 10:18:57;;;;;;;5.90;1.00;;;14.60;93.50;;;;;;5022814;28;20056;-65
2022/10/07 10:21:28;;;;;;;5.80;1.33;;;14.80;95.10;;;;;;5020304;28;20045;-65
2022/10/07 10:27:21;;;;;;;5.65;1.30;;;14.90;94.00;;;;;;5015717;28;20050;-64
2022/10/07 10:29:52;;;;;;;12.55;1.90;;;15.00;94.10;;;;;;5023882;28;20045;-64
2022/10/07 10:32:35;;;;;;;6.97;1.23;;;15.10;94.70;;;;;;5023334;28;20037;-64
2022/10/07 10:35:23;;;;;;;13.93;1.70;;;15.20;95.50;;;;;;5016816;28;20038;-65
2022/10/07 10:37:58;;;;;;;9.80;2.22;;;15.30;93.90;;;;;;5023563;28;20133;-64
2022/10/07 10:41:04;;;;;;;6.70;1.45;;;15.40;95.00;;;;;;5021474;28;20348;-63
2022/10/07 10:43:40;;;;;;;16.27;2.13;;;15.50;94.10;;;;;;4960932;28;20050;-66
2022/10/07 10:46:47;;;;;;;10.95;1.73;;;15.50;94.60;;;;;;4962166;28;20074;-67
2022/10/07 10:49:24;;;;;;;12.57;1.53;;;15.50;94.20;;;;;;5012376;28;20051;-65
2022/10/07 10:52:16;;;;;;;11.73;1.50;;;15.70;95.30;;;;;;5024359;28;20291;-65
2022/10/07 10:55:05;;;;;;;8.27;1.65;;;15.80;95.20;;;;;;5023823;28;20049;-66
2022/10/07 10:57:37;;;;;;;10.90;1.77;;;15.80;94.50;;;;;;5024196;28;20045;-66
2022/10/07 11:00:07;;;;;;;8.95;1.77;;;15.90;94.40;;;;;;5024419;28;20044;-65
2022/10/07 11:02:41;;;;;;;7.78;1.50;;;16.00;94.20;;;;;;5023949;28;20529;-65
2022/10/07 11:05:23;;;;;;;16.00;1.80;;;16.10;94.10;;;;;;5020092;28;20037;-66
2022/10/07 11:07:54;;;;;;;6.72;1.23;;;16.10;94.60;;;;;;5025022;28;20056;-66
2022/10/07 11:10:35;;;;;;;10.63;1.80;;;16.10;94.20;;;;;;5024868;28;20573;-65
2022/10/07 11:13:17;;;;;;;11.30;1.70;;;16.20;94.60;;;;;;5023548;28;20088;-65
2022/10/07 11:15:59;;;;;;;8.15;1.88;;;16.20;93.60;;;;;;5025137;28;20124;-66
2022/10/07 11:18:32;;;;;;;7.30;1.67;;;16.20;92.10;;;;;;5020556;28;20045;-65
2022/10/07 11:21:00;;;;;;;8.45;2.05;;;16.00;92.20;;;;;;5024934;28;20136;-65
2022/10/07 11:23:31;;;;;;;9.80;1.85;;;15.90;92.00;;;;;;5023901;28;20037;-65
2022/10/07 11:26:11;;;;;;;11.35;1.80;;;16.00;91.60;;;;;;5022772;28;20095;-65
2022/10/07 11:28:39;;;;;;;9.23;1.67;;;16.00;92.10;;;;;;5022395;28;20041;-65
2022/10/07 11:31:11;;;;;;;8.52;1.40;;;16.10;92.70;;;;;;5022062;28;20068;-65
2022/10/07 11:33:45;;;;;;;7.57;1.30;;;16.10;92.50;;;;;;5022846;28;20045;-65
2022/10/07 11:36:23;;;;;;;7.20;1.38;;;16.20;91.20;;;;;;5023638;28;20060;-65
2022/10/07 11:38:51;;;;;;;10.77;1.55;;;16.10;91.50;;;;;;5023355;28;20540;-65
2022/10/07 11:41:25;;;;;;;17.50;1.58;;;16.20;93.10;;;;;;5022312;28;20044;-65
2022/10/07 11:43:55;;;;;;;7.13;1.83;;;16.30;92.50;;;;;;5023682;28;20540;-66
2022/10/07 11:46:35;;;;;;;12.50;2.05;;;16.20;92.10;;;;;;5023846;28;20064;-65
2022/10/07 11:49:09;;;;;;;7.10;2.03;;;16.20;91.40;;;;;;5016039;28;20041;-65
2022/10/07 11:51:53;;;;;;;11.07;1.35;;;16.10;91.90;;;;;;5021015;28;20046;-65
2022/10/07 11:54:21;;;;;;;6.53;1.20;;;16.10;91.10;;;;;;5023526;28;20057;-65
2022/10/07 11:56:50;;;;;;;6.38;1.55;;;16.30;89.20;;;;;;5024024;28;20053;-65
2022/10/07 11:59:32;;;;;;;8.57;1.17;;;16.20;89.70;;;;;;5023047;28;20038;-64
2022/10/07 12:01:58;;;;;;;9.10;1.48;;;16.40;89.50;;;;;;5021083;28;20034;-64
2022/10/07 12:04:34;;;;;;;8.40;1.25;;;16.50;90.80;;;;;;5019288;28;20087;-65
2022/10/07 12:07:30;;;;;;;9.45;1.27;;;16.70;91.00;;;;;;5015946;28;20091;-67
2022/10/07 12:10:02;;;;;;;5.57;1.35;;;16.90;90.90;;;;;;5023905;28;20494;-64
2022/10/07 12:12:43;;;;;;;9.52;1.27;;;16.90;90.70;;;;;;5023747;28;20046;-65
2022/10/07 12:15:43;;;;;;;8.07;1.33;;;17.10;90.40;;;;;;5020331;28;20112;-66
2022/10/07 12:18:09;;;;;;;6.78;1.45;;;17.00;88.30;;;;;;5025768;28;20065;-64
2022/10/07 12:20:45;;;;;;;;;;;16.80;84.90;;;;;;5028837;28;20075;-65
2022/10/07 12:25:51;;;;;;;7.13;1.30;;;16.70;88.80;;;;;;5028338;28;20050;-66
2022/10/07 12:28:38;;;;;;;6.60;1.60;;;16.70;86.20;;;;;;5027109;28;20037;-65
2022/10/07 12:31:05;;;;;;;6.05;1.17;;;16.70;87.00;;;;;;5025029;28;20708;-66
2022/10/07 12:33:45;;;;;;;6.40;1.50;;;16.70;87.00;;;;;;5026720;28;20041;-64
2022/10/07 12:36:28;;;;;;;6.32;1.13;;;16.70;87.70;;;;;;5029099;28;20045;-65
2022/10/07 12:38:59;;;;;;;4.25;0.90;;;16.70;80.30;;;;;;5026829;28;20083;-66
2022/10/07 12:41:30;;;;;;;5.97;1.10;;;16.70;83.30;;;;;;5028056;28;20512;-65
2022/10/07 12:44:05;;;;;;;6.82;1.00;;;16.80;84.00;;;;;;5028204;28;20684;-65
2022/10/07 12:46:41;;;;;;;8.23;1.52;;;16.70;80.00;;;;;;5029430;28;20430;-65
2022/10/07 12:49:39;;;;;;;4.13;0.85;;;16.60;82.10;;;;;;5027316;28;20061;-66
2022/10/07 12:52:11;;;;;;;5.55;1.27;;;16.60;79.80;;;;;;5023503;28;20132;-66
2022/10/07 12:54:55;;;;;;;4.35;1.23;;;16.60;73.20;;;;;;5026580;28;20041;-66
2022/10/07 12:57:24;;;;;;;7.50;1.10;;;16.60;75.80;;;;;;5026033;28;20048;-65
2022/10/07 13:00:14;;;;;;;6.68;1.52;;;16.50;75.20;;;;;;5026711;28;20045;-66
2022/10/07 13:02:40;;;;;;;6.10;0.88;;;16.50;74.80;;;;;;5025786;28;20053;-65
2022/10/07 13:05:17;;;;;;;4.78;0.82;;;16.50;79.20;;;;;;5024126;28;20076;-65
2022/10/07 13:08:30;;;;;;;4.22;1.05;;;16.50;76.60;;;;;;5025439;28;20081;-65
2022/10/07 13:11:29;;;;;;;4.15;0.80;;;16.50;76.20;;;;;;5009406;28;20127;-67
2022/10/07 13:14:11;;;;;;;5.18;0.73;;;16.60;79.10;;;;;;5026034;28;20041;-65
2022/10/07 13:16:51;;;;;;;3.47;0.90;;;16.60;81.40;;;;;;5024778;28;20049;-66
2022/10/07 13:19:39;;;;;;;6.40;1.70;;;16.70;84.40;;;;;;5026210;28;20037;-66
2022/10/07 13:22:13;;;;;;;10.18;1.65;;;16.60;82.20;;;;;;5020399;28;20037;-65
2022/10/07 13:24:41;;;;;;;4.85;1.40;;;16.60;85.60;;;;;;5024851;28;20172;-66
2022/10/07 13:27:11;;;;;;;7.18;1.58;;;16.40;84.30;;;;;;5025803;28;20052;-65
2022/10/07 13:29:38;;;;;;;4.20;0.95;;;16.40;77.90;;;;;;5027413;28;20049;-65